Terminal Aerodrome Forecast
Issued by NWS

Home | Current Version | Previous Version | Text Only | Print | Product List | Glossary On
Versions: 1 2 3 4 5 6 7 8 9 10 11 12 13 14 15 16 17 18 19 20
000
FTUS43 KILX 230632 AAA
TAFBMI
TAF AMD
KBMI 230632Z 2307/2406 34012KT 5SM BR BKN006
      TEMPO 2307/2309 2SM -SHRA BR OVC002
     FM231600 34011KT P6SM BKN010
     FM240000 32006KT P6SM BKN020=

USA.gov is the U.S. government's official web portal to all federal, state and local government web resources and services.